Terminal Aerodrome Forecast
Issued by NWS

Current Version | Previous Version | Graphics & Text | Print | Product List | Glossary On
Versions: 1 2 3 4 5 6 7 8 9 10 11 12 13 14 15 16 17 18 19 20 21 22 23 24 25 26 27 28 29 30
000
FTUS41 KILN 200500
TAFLUK
TAF
KLUK 200537Z 2006/2106 00000KT P6SM VCSH OVC045
      TEMPO 2006/2010 5SM -SHRA BR OVC028
     FM201000 09003KT 3SM BR OVC028
     FM201400 10005KT P6SM OVC028
     FM201800 12005KT P6SM BKN028
     FM210100 VRB03KT P6SM BKN028=

USA.gov is the U.S. government's official web portal to all federal, state and local government web resources and services.